sensor_id;sensor_type;location;lat;lon;timestamp;temperature;humidity
25983;DHT22;13773;48.868;10.730;2022-09-27T00:02:03;9.70;99.90
25983;DHT22;13773;48.868;10.730;2022-09-27T00:04:28;9.60;99.90
25983;DHT22;13773;48.868;10.730;2022-09-27T00:06:54;9.60;99.90
25983;DHT22;13773;48.868;10.730;2022-09-27T00:09:20;9.60;99.90
25983;DHT22;13773;48.868;10.730;2022-09-27T00:11:45;9.60;99.90
25983;DHT22;13773;48.868;10.730;2022-09-27T00:14:14;9.50;99.90
25983;DHT22;13773;48.868;10.730;2022-09-27T00:16:41;9.60;99.90
25983;DHT22;13773;48.868;10.730;2022-09-27T00:19:15;9.50;99.90
25983;DHT22;13773;48.868;10.730;2022-09-27T00:21:42;9.50;99.90
25983;DHT22;13773;48.868;10.730;2022-09-27T00:24:12;9.50;99.90
25983;DHT22;13773;48.868;10.730;2022-09-27T00:26:38;9.50;99.90
25983;DHT22;13773;48.868;10.730;2022-09-27T00:29:04;9.50;99.90
25983;DHT22;13773;48.868;10.730;2022-09-27T00:31:30;9.50;99.90
25983;DHT22;13773;48.868;10.730;2022-09-27T00:34:01;9.50;99.90
25983;DHT22;13773;48.868;10.730;2022-09-27T00:36:27;9.50;99.90
25983;DHT22;13773;48.868;10.730;2022-09-27T00:38:54;9.50;99.90
25983;DHT22;13773;48.868;10.730;2022-09-27T00:41:25;9.50;99.90
25983;DHT22;13773;48.868;10.730;2022-09-27T00:43:56;9.50;99.90
25983;DHT22;13773;48.868;10.730;2022-09-27T00:46:44;9.50;99.90
25983;DHT22;13773;48.868;10.730;2022-09-27T00:51:41;9.50;99.90
25983;DHT22;13773;48.868;10.730;2022-09-27T00:54:12;9.50;99.90
25983;DHT22;13773;48.868;10.730;2022-09-27T00:56:39;9.50;99.90
25983;DHT22;13773;48.868;10.730;2022-09-27T00:59:13;9.50;99.90
25983;DHT22;13773;48.868;10.730;2022-09-27T01:01:40;9.40;99.90
25983;DHT22;13773;48.868;10.730;2022-09-27T01:04:11;9.50;99.90
25983;DHT22;13773;48.868;10.730;2022-09-27T01:06:37;9.40;99.90
25983;DHT22;13773;48.868;10.730;2022-09-27T01:09:08;9.40;99.90
25983;DHT22;13773;48.868;10.730;2022-09-27T01:11:50;9.40;99.90
25983;DHT22;13773;48.868;10.730;2022-09-27T01:14:40;9.40;99.90
25983;DHT22;13773;48.868;10.730;2022-09-27T01:28:19;9.40;99.90
25983;DHT22;13773;48.868;10.730;2022-09-27T01:31:06;9.30;99.90
25983;DHT22;13773;48.868;10.730;2022-09-27T01:33:44;9.30;99.90
25983;DHT22;13773;48.868;10.730;2022-09-27T01:36:30;9.30;99.90
25983;DHT22;13773;48.868;10.730;2022-09-27T01:39:18;9.30;99.90
25983;DHT22;13773;48.868;10.730;2022-09-27T01:42:03;9.30;99.90
25983;DHT22;13773;48.868;10.730;2022-09-27T01:47:21;9.30;99.90
25983;DHT22;13773;48.868;10.730;2022-09-27T01:49:52;9.30;99.90
25983;DHT22;13773;48.868;10.730;2022-09-27T01:52:24;9.20;99.90
25983;DHT22;13773;48.868;10.730;2022-09-27T01:54:55;9.20;99.90
25983;DHT22;13773;48.868;10.730;2022-09-27T01:57:26;9.20;99.90
25983;DHT22;13773;48.868;10.730;2022-09-27T02:00:10;9.20;99.90
25983;DHT22;13773;48.868;10.730;2022-09-27T02:03:04;9.20;99.90
25983;DHT22;13773;48.868;10.730;2022-09-27T02:05:45;9.20;99.90
25983;DHT22;13773;48.868;10.730;2022-09-27T02:08:32;9.10;99.90
25983;DHT22;13773;48.868;10.730;2022-09-27T02:11:02;9.20;99.90
25983;DHT22;13773;48.868;10.730;2022-09-27T02:13:43;9.10;99.90
25983;DHT22;13773;48.868;10.730;2022-09-27T02:21:14;9.10;99.90
25983;DHT22;13773;48.868;10.730;2022-09-27T02:23:43;9.10;99.90
25983;DHT22;13773;48.868;10.730;2022-09-27T02:26:23;9.10;99.90
25983;DHT22;13773;48.868;10.730;2022-09-27T02:28:59;9.10;99.90
25983;DHT22;13773;48.868;10.730;2022-09-27T02:31:28;9.10;99.90
25983;DHT22;13773;48.868;10.730;2022-09-27T02:34:01;9.00;99.90
25983;DHT22;13773;48.868;10.730;2022-09-27T02:36:28;9.10;99.90
25983;DHT22;13773;48.868;10.730;2022-09-27T02:38:54;9.00;99.90
25983;DHT22;13773;48.868;10.730;2022-09-27T02:41:21;9.00;99.90
25983;DHT22;13773;48.868;10.730;2022-09-27T02:44:09;9.00;99.90
25983;DHT22;13773;48.868;10.730;2022-09-27T02:49:58;9.00;99.90
25983;DHT22;13773;48.868;10.730;2022-09-27T03:03:44;9.00;99.90
25983;DHT22;13773;48.868;10.730;2022-09-27T03:06:17;8.90;99.90
25983;DHT22;13773;48.868;10.730;2022-09-27T03:08:43;8.90;99.90
25983;DHT22;13773;48.868;10.730;2022-09-27T03:11:10;8.90;99.90
25983;DHT22;13773;48.868;10.730;2022-09-27T03:13:35;8.90;99.90
25983;DHT22;13773;48.868;10.730;2022-09-27T03:16:04;8.90;99.90
25983;DHT22;13773;48.868;10.730;2022-09-27T03:18:31;8.90;99.90
25983;DHT22;13773;48.868;10.730;2022-09-27T03:20:56;8.90;99.90
25983;DHT22;13773;48.868;10.730;2022-09-27T03:23:22;8.90;99.90
25983;DHT22;13773;48.868;10.730;2022-09-27T03:25:48;8.90;99.90
25983;DHT22;13773;48.868;10.730;2022-09-27T03:28:14;8.90;99.90
25983;DHT22;13773;48.868;10.730;2022-09-27T03:30:40;8.90;99.90
25983;DHT22;13773;48.868;10.730;2022-09-27T03:33:06;8.80;99.90
25983;DHT22;13773;48.868;10.730;2022-09-27T03:35:34;8.90;99.90
25983;DHT22;13773;48.868;10.730;2022-09-27T03:38:00;8.80;99.90
25983;DHT22;13773;48.868;10.730;2022-09-27T03:40:25;8.80;99.90
25983;DHT22;13773;48.868;10.730;2022-09-27T03:42:51;8.80;99.90
25983;DHT22;13773;48.868;10.730;2022-09-27T03:45:17;8.80;99.90
25983;DHT22;13773;48.868;10.730;2022-09-27T03:47:43;8.90;99.90
25983;DHT22;13773;48.868;10.730;2022-09-27T03:50:10;8.80;99.90
25983;DHT22;13773;48.868;10.730;2022-09-27T03:52:36;8.80;99.90
25983;DHT22;13773;48.868;10.730;2022-09-27T03:55:02;8.80;99.90
25983;DHT22;13773;48.868;10.730;2022-09-27T03:57:28;8.80;99.90
25983;DHT22;13773;48.868;10.730;2022-09-27T03:59:55;8.80;99.90
25983;DHT22;13773;48.868;10.730;2022-09-27T04:02:22;8.90;99.90
25983;DHT22;13773;48.868;10.730;2022-09-27T04:04:48;8.80;99.90
25983;DHT22;13773;48.868;10.730;2022-09-27T04:07:14;8.70;99.90
25983;DHT22;13773;48.868;10.730;2022-09-27T04:09:42;8.70;99.90
25983;DHT22;13773;48.868;10.730;2022-09-27T04:12:09;8.70;99.90
25983;DHT22;13773;48.868;10.730;2022-09-27T04:14:34;8.70;99.90
25983;DHT22;13773;48.868;10.730;2022-09-27T04:17:00;8.60;99.90
25983;DHT22;13773;48.868;10.730;2022-09-27T04:19:26;8.60;99.90
25983;DHT22;13773;48.868;10.730;2022-09-27T04:21:52;8.60;99.90
25983;DHT22;13773;48.868;10.730;2022-09-27T04:24:17;8.60;99.90
25983;DHT22;13773;48.868;10.730;2022-09-27T04:26:43;8.60;99.90
25983;DHT22;13773;48.868;10.730;2022-09-27T04:29:09;8.60;99.90
25983;DHT22;13773;48.868;10.730;2022-09-27T04:31:35;8.60;99.90
25983;DHT22;13773;48.868;10.730;2022-09-27T04:34:04;8.50;99.90
25983;DHT22;13773;48.868;10.730;2022-09-27T04:36:30;8.50;99.90
25983;DHT22;13773;48.868;10.730;2022-09-27T04:38:57;8.50;99.90
25983;DHT22;13773;48.868;10.730;2022-09-27T04:41:23;8.50;99.90
25983;DHT22;13773;48.868;10.730;2022-09-27T04:43:53;8.50;99.90
25983;DHT22;13773;48.868;10.730;2022-09-27T04:46:20;8.40;99.90
25983;DHT22;13773;48.868;10.730;2022-09-27T04:48:47;8.20;99.90
25983;DHT22;13773;48.868;10.730;2022-09-27T04:51:13;8.10;99.90
25983;DHT22;13773;48.868;10.730;2022-09-27T04:53:42;8.00;99.90
25983;DHT22;13773;48.868;10.730;2022-09-27T04:56:08;7.90;99.90
25983;DHT22;13773;48.868;10.730;2022-09-27T04:58:34;7.90;99.90
25983;DHT22;13773;48.868;10.730;2022-09-27T05:01:00;7.80;99.90
25983;DHT22;13773;48.868;10.730;2022-09-27T05:03:27;7.80;99.90
25983;DHT22;13773;48.868;10.730;2022-09-27T05:05:53;7.80;99.90
25983;DHT22;13773;48.868;10.730;2022-09-27T05:08:20;7.80;99.90
25983;DHT22;13773;48.868;10.730;2022-09-27T05:10:46;7.80;99.90
25983;DHT22;13773;48.868;10.730;2022-09-27T05:13:12;7.80;99.90
25983;DHT22;13773;48.868;10.730;2022-09-27T05:15:39;7.90;99.90
25983;DHT22;13773;48.868;10.730;2022-09-27T05:18:06;7.90;99.90
25983;DHT22;13773;48.868;10.730;2022-09-27T05:20:33;8.00;99.90
25983;DHT22;13773;48.868;10.730;2022-09-27T05:22:59;8.00;99.90
25983;DHT22;13773;48.868;10.730;2022-09-27T05:25:25;8.00;99.90
25983;DHT22;13773;48.868;10.730;2022-09-27T05:27:51;8.10;99.90
25983;DHT22;13773;48.868;10.730;2022-09-27T05:30:17;8.10;99.90
25983;DHT22;13773;48.868;10.730;2022-09-27T05:32:43;8.10;99.90
25983;DHT22;13773;48.868;10.730;2022-09-27T05:35:13;8.00;99.90
25983;DHT22;13773;48.868;10.730;2022-09-27T05:37:39;8.10;99.90
25983;DHT22;13773;48.868;10.730;2022-09-27T05:40:05;8.10;99.90
25983;DHT22;13773;48.868;10.730;2022-09-27T05:42:31;8.10;99.90
25983;DHT22;13773;48.868;10.730;2022-09-27T05:44:59;8.10;99.90
25983;DHT22;13773;48.868;10.730;2022-09-27T05:47:24;8.20;99.90
25983;DHT22;13773;48.868;10.730;2022-09-27T05:49:50;8.20;99.90
25983;DHT22;13773;48.868;10.730;2022-09-27T05:52:16;8.20;99.90
25983;DHT22;13773;48.868;10.730;2022-09-27T05:54:42;8.20;99.90
25983;DHT22;13773;48.868;10.730;2022-09-27T05:57:08;8.20;99.90
25983;DHT22;13773;48.868;10.730;2022-09-27T05:59:34;8.20;99.90
25983;DHT22;13773;48.868;10.730;2022-09-27T06:02:00;8.20;99.90
25983;DHT22;13773;48.868;10.730;2022-09-27T06:04:26;8.20;99.90
25983;DHT22;13773;48.868;10.730;2022-09-27T06:06:52;8.20;99.90
25983;DHT22;13773;48.868;10.730;2022-09-27T06:09:17;8.30;99.90
25983;DHT22;13773;48.868;10.730;2022-09-27T06:11:43;8.30;99.90
25983;DHT22;13773;48.868;10.730;2022-09-27T06:14:11;8.30;99.90
25983;DHT22;13773;48.868;10.730;2022-09-27T06:16:37;8.40;99.90
25983;DHT22;13773;48.868;10.730;2022-09-27T06:19:03;8.40;99.90
25983;DHT22;13773;48.868;10.730;2022-09-27T06:21:29;8.50;99.90
25983;DHT22;13773;48.868;10.730;2022-09-27T06:23:56;8.50;99.90
25983;DHT22;13773;48.868;10.730;2022-09-27T06:26:24;8.50;99.90
25983;DHT22;13773;48.868;10.730;2022-09-27T06:28:52;8.60;99.90
25983;DHT22;13773;48.868;10.730;2022-09-27T06:31:19;8.60;99.90
25983;DHT22;13773;48.868;10.730;2022-09-27T06:33:46;8.60;99.90
25983;DHT22;13773;48.868;10.730;2022-09-27T06:36:12;8.60;99.90
25983;DHT22;13773;48.868;10.730;2022-09-27T06:38:38;8.60;99.90
25983;DHT22;13773;48.868;10.730;2022-09-27T06:41:04;8.70;99.90
25983;DHT22;13773;48.868;10.730;2022-09-27T06:43:34;8.70;99.90
25983;DHT22;13773;48.868;10.730;2022-09-27T06:46:00;8.70;99.90
25983;DHT22;13773;48.868;10.730;2022-09-27T06:48:30;8.70;99.90
25983;DHT22;13773;48.868;10.730;2022-09-27T06:50:57;8.70;99.90
25983;DHT22;13773;48.868;10.730;2022-09-27T06:53:23;8.70;99.90
25983;DHT22;13773;48.868;10.730;2022-09-27T06:55:51;8.70;99.90
25983;DHT22;13773;48.868;10.730;2022-09-27T06:58:17;8.70;99.90
25983;DHT22;13773;48.868;10.730;2022-09-27T07:01:01;8.70;99.90
25983;DHT22;13773;48.868;10.730;2022-09-27T07:03:28;8.70;99.90
25983;DHT22;13773;48.868;10.730;2022-09-27T07:05:59;8.70;99.90
25983;DHT22;13773;48.868;10.730;2022-09-27T07:08:26;8.70;99.90
25983;DHT22;13773;48.868;10.730;2022-09-27T07:10:54;8.80;99.90
25983;DHT22;13773;48.868;10.730;2022-09-27T07:13:20;8.90;99.90
25983;DHT22;13773;48.868;10.730;2022-09-27T07:15:46;8.90;99.90
25983;DHT22;13773;48.868;10.730;2022-09-27T07:18:13;8.90;99.90
25983;DHT22;13773;48.868;10.730;2022-09-27T07:20:38;8.90;99.90
25983;DHT22;13773;48.868;10.730;2022-09-27T07:23:05;8.80;99.90
25983;DHT22;13773;48.868;10.730;2022-09-27T07:25:32;8.80;99.90
25983;DHT22;13773;48.868;10.730;2022-09-27T07:28:05;8.90;99.90
25983;DHT22;13773;48.868;10.730;2022-09-27T07:30:32;8.90;99.90
25983;DHT22;13773;48.868;10.730;2022-09-27T07:32:58;8.90;99.90
25983;DHT22;13773;48.868;10.730;2022-09-27T07:35:24;8.90;99.90
25983;DHT22;13773;48.868;10.730;2022-09-27T07:37:50;8.90;99.90
25983;DHT22;13773;48.868;10.730;2022-09-27T07:40:17;8.90;99.90
25983;DHT22;13773;48.868;10.730;2022-09-27T07:42:43;8.90;99.90
25983;DHT22;13773;48.868;10.730;2022-09-27T07:45:10;8.90;99.90
25983;DHT22;13773;48.868;10.730;2022-09-27T07:47:38;9.00;99.90
25983;DHT22;13773;48.868;10.730;2022-09-27T07:50:05;9.00;99.90
25983;DHT22;13773;48.868;10.730;2022-09-27T07:52:41;8.90;99.90
25983;DHT22;13773;48.868;10.730;2022-09-27T07:55:09;8.90;99.90
25983;DHT22;13773;48.868;10.730;2022-09-27T07:57:37;8.80;99.90
25983;DHT22;13773;48.868;10.730;2022-09-27T08:00:05;8.80;99.90
25983;DHT22;13773;48.868;10.730;2022-09-27T08:02:32;8.80;99.90
25983;DHT22;13773;48.868;10.730;2022-09-27T08:05:01;8.80;99.90
25983;DHT22;13773;48.868;10.730;2022-09-27T08:07:27;8.80;99.90
25983;DHT22;13773;48.868;10.730;2022-09-27T08:09:53;8.70;99.90
25983;DHT22;13773;48.868;10.730;2022-09-27T08:12:19;8.70;99.90
25983;DHT22;13773;48.868;10.730;2022-09-27T08:14:48;8.60;99.90
25983;DHT22;13773;48.868;10.730;2022-09-27T08:17:15;8.70;99.90
25983;DHT22;13773;48.868;10.730;2022-09-27T08:19:41;8.70;99.90
25983;DHT22;13773;48.868;10.730;2022-09-27T08:22:09;8.80;99.90
25983;DHT22;13773;48.868;10.730;2022-09-27T08:24:36;8.80;99.90
25983;DHT22;13773;48.868;10.730;2022-09-27T08:27:02;8.80;99.90
25983;DHT22;13773;48.868;10.730;2022-09-27T08:29:27;8.80;99.90
25983;DHT22;13773;48.868;10.730;2022-09-27T08:31:53;8.80;99.90
25983;DHT22;13773;48.868;10.730;2022-09-27T08:34:22;8.90;99.90
25983;DHT22;13773;48.868;10.730;2022-09-27T08:36:48;9.00;99.90
25983;DHT22;13773;48.868;10.730;2022-09-27T08:39:14;8.90;99.90
25983;DHT22;13773;48.868;10.730;2022-09-27T08:47:16;9.00;99.90
25983;DHT22;13773;48.868;10.730;2022-09-27T08:52:22;9.30;99.90
25983;DHT22;13773;48.868;10.730;2022-09-27T08:54:52;9.30;99.90
25983;DHT22;13773;48.868;10.730;2022-09-27T08:57:20;9.40;99.90
25983;DHT22;13773;48.868;10.730;2022-09-27T09:02:23;9.60;99.90
25983;DHT22;13773;48.868;10.730;2022-09-27T09:04:55;9.50;99.90
25983;DHT22;13773;48.868;10.730;2022-09-27T09:10:04;9.30;99.90
25983;DHT22;13773;48.868;10.730;2022-09-27T09:12:58;9.40;99.90
25983;DHT22;13773;48.868;10.730;2022-09-27T09:15:38;9.70;99.90
25983;DHT22;13773;48.868;10.730;2022-09-27T09:21:32;10.00;99.90
25983;DHT22;13773;48.868;10.730;2022-09-27T09:27:07;9.80;99.90
25983;DHT22;13773;48.868;10.730;2022-09-27T09:35:05;10.00;99.90
25983;DHT22;13773;48.868;10.730;2022-09-27T09:37:38;10.10;99.90
25983;DHT22;13773;48.868;10.730;2022-09-27T09:45:44;10.50;99.90
25983;DHT22;13773;48.868;10.730;2022-09-27T09:50:57;10.60;99.90
25983;DHT22;13773;48.868;10.730;2022-09-27T09:53:39;10.40;99.90
25983;DHT22;13773;48.868;10.730;2022-09-27T09:56:20;10.30;99.90
25983;DHT22;13773;48.868;10.730;2022-09-27T09:58:59;10.00;99.90
25983;DHT22;13773;48.868;10.730;2022-09-27T10:01:33;9.80;99.90
25983;DHT22;13773;48.868;10.730;2022-09-27T10:04:01;9.80;99.90
25983;DHT22;13773;48.868;10.730;2022-09-27T10:06:28;9.70;99.90
25983;DHT22;13773;48.868;10.730;2022-09-27T10:08:54;9.80;99.90
25983;DHT22;13773;48.868;10.730;2022-09-27T10:11:28;9.90;99.90
25983;DHT22;13773;48.868;10.730;2022-09-27T10:13:56;9.80;99.90
25983;DHT22;13773;48.868;10.730;2022-09-27T10:16:23;9.70;99.90
25983;DHT22;13773;48.868;10.730;2022-09-27T10:18:52;9.60;99.90
25983;DHT22;13773;48.868;10.730;2022-09-27T10:21:25;9.60;99.90
25983;DHT22;13773;48.868;10.730;2022-09-27T10:24:07;9.50;99.90
25983;DHT22;13773;48.868;10.730;2022-09-27T10:26:34;9.60;99.90
25983;DHT22;13773;48.868;10.730;2022-09-27T10:31:55;9.60;99.90
25983;DHT22;13773;48.868;10.730;2022-09-27T10:34:39;9.60;99.90
25983;DHT22;13773;48.868;10.730;2022-09-27T10:39:38;9.70;99.90
25983;DHT22;13773;48.868;10.730;2022-09-27T10:42:35;9.80;99.90
25983;DHT22;13773;48.868;10.730;2022-09-27T10:47:46;10.30;99.90
25983;DHT22;13773;48.868;10.730;2022-09-27T10:50:18;10.30;99.90
25983;DHT22;13773;48.868;10.730;2022-09-27T10:52:47;10.40;99.90
25983;DHT22;13773;48.868;10.730;2022-09-27T10:55:23;10.60;99.90
25983;DHT22;13773;48.868;10.730;2022-09-27T10:57:52;10.70;99.90
25983;DHT22;13773;48.868;10.730;2022-09-27T11:00:29;10.70;99.90
25983;DHT22;13773;48.868;10.730;2022-09-27T11:02:59;10.80;99.90
25983;DHT22;13773;48.868;10.730;2022-09-27T11:07:58;10.40;99.90
25983;DHT22;13773;48.868;10.730;2022-09-27T11:10:35;10.30;99.90
25983;DHT22;13773;48.868;10.730;2022-09-27T11:13:18;10.30;99.90
25983;DHT22;13773;48.868;10.730;2022-09-27T11:27:48;11.30;99.90
25983;DHT22;13773;48.868;10.730;2022-09-27T11:30:19;11.10;99.90
25983;DHT22;13773;48.868;10.730;2022-09-27T11:35:36;10.50;99.90
25983;DHT22;13773;48.868;10.730;2022-09-27T11:38:24;10.50;99.90
25983;DHT22;13773;48.868;10.730;2022-09-27T11:47:12;10.70;99.90
25983;DHT22;13773;48.868;10.730;2022-09-27T11:52:49;10.60;99.90
25983;DHT22;13773;48.868;10.730;2022-09-27T12:09:21;11.60;99.90
25983;DHT22;13773;48.868;10.730;2022-09-27T12:14:32;11.60;99.90
25983;DHT22;13773;48.868;10.730;2022-09-27T12:17:02;11.80;99.90
25983;DHT22;13773;48.868;10.730;2022-09-27T12:19:33;12.10;99.90
25983;DHT22;13773;48.868;10.730;2022-09-27T12:22:03;12.30;99.90
25983;DHT22;13773;48.868;10.730;2022-09-27T12:24:31;12.10;99.90
25983;DHT22;13773;48.868;10.730;2022-09-27T12:27:08;11.80;99.90
25983;DHT22;13773;48.868;10.730;2022-09-27T12:29:37;11.60;99.90
25983;DHT22;13773;48.868;10.730;2022-09-27T12:32:16;11.70;99.90
25983;DHT22;13773;48.868;10.730;2022-09-27T12:35:08;11.60;99.90
25983;DHT22;13773;48.868;10.730;2022-09-27T12:38:33;11.60;99.90
25983;DHT22;13773;48.868;10.730;2022-09-27T12:40:37;11.60;99.90
25983;DHT22;13773;48.868;10.730;2022-09-27T12:43:27;11.50;99.90
25983;DHT22;13773;48.868;10.730;2022-09-27T12:46:58;11.40;99.90
25983;DHT22;13773;48.868;10.730;2022-09-27T12:51:54;11.60;99.90
25983;DHT22;13773;48.868;10.730;2022-09-27T13:00:08;12.30;99.90
25983;DHT22;13773;48.868;10.730;2022-09-27T13:02:59;12.50;99.90
25983;DHT22;13773;48.868;10.730;2022-09-27T13:13:57;11.90;99.90
25983;DHT22;13773;48.868;10.730;2022-09-27T13:16:24;11.80;99.90
25983;DHT22;13773;48.868;10.730;2022-09-27T13:21:54;11.90;99.90
25983;DHT22;13773;48.868;10.730;2022-09-27T13:35:35;12.10;99.90
25983;DHT22;13773;48.868;10.730;2022-09-27T13:38:02;12.10;99.90
25983;DHT22;13773;48.868;10.730;2022-09-27T13:40:31;12.10;99.90
25983;DHT22;13773;48.868;10.730;2022-09-27T13:46:05;11.30;99.90
25983;DHT22;13773;48.868;10.730;2022-09-27T13:51:25;10.80;99.90
25983;DHT22;13773;48.868;10.730;2022-09-27T13:54:01;10.20;99.90
25983;DHT22;13773;48.868;10.730;2022-09-27T13:59:22;6.60;99.90
25983;DHT22;13773;48.868;10.730;2022-09-27T14:01:58;6.30;99.90
25983;DHT22;13773;48.868;10.730;2022-09-27T14:04:33;6.40;99.90
25983;DHT22;13773;48.868;10.730;2022-09-27T14:07:02;6.70;99.90
25983;DHT22;13773;48.868;10.730;2022-09-27T14:09:34;6.90;99.90
25983;DHT22;13773;48.868;10.730;2022-09-27T14:12:08;7.00;99.90
25983;DHT22;13773;48.868;10.730;2022-09-27T14:14:35;7.00;99.90
25983;DHT22;13773;48.868;10.730;2022-09-27T14:17:05;7.10;99.90
25983;DHT22;13773;48.868;10.730;2022-09-27T14:19:32;7.20;99.90
25983;DHT22;13773;48.868;10.730;2022-09-27T14:21:58;7.30;99.90
25983;DHT22;13773;48.868;10.730;2022-09-27T14:29:56;7.40;99.90
25983;DHT22;13773;48.868;10.730;2022-09-27T14:32:30;7.50;99.90
25983;DHT22;13773;48.868;10.730;2022-09-27T14:35:28;7.60;99.90
25983;DHT22;13773;48.868;10.730;2022-09-27T14:38:18;8.00;99.90
25983;DHT22;13773;48.868;10.730;2022-09-27T14:41:00;8.20;99.90
25983;DHT22;13773;48.868;10.730;2022-09-27T14:43:27;8.20;99.90
25983;DHT22;13773;48.868;10.730;2022-09-27T14:46:02;8.30;99.90
25983;DHT22;13773;48.868;10.730;2022-09-27T14:48:36;8.40;99.90
25983;DHT22;13773;48.868;10.730;2022-09-27T14:53:43;8.50;99.90
25983;DHT22;13773;48.868;10.730;2022-09-27T14:56:19;8.50;99.90
25983;DHT22;13773;48.868;10.730;2022-09-27T14:58:48;8.70;99.90
25983;DHT22;13773;48.868;10.730;2022-09-27T15:01:18;8.90;99.90
25983;DHT22;13773;48.868;10.730;2022-09-27T15:03:48;8.80;99.90
25983;DHT22;13773;48.868;10.730;2022-09-27T15:06:18;9.10;99.90
25983;DHT22;13773;48.868;10.730;2022-09-27T15:08:45;9.30;99.90
25983;DHT22;13773;48.868;10.730;2022-09-27T15:11:15;9.20;99.90
25983;DHT22;13773;48.868;10.730;2022-09-27T15:13:44;9.10;99.90
25983;DHT22;13773;48.868;10.730;2022-09-27T15:16:15;8.80;99.90
25983;DHT22;13773;48.868;10.730;2022-09-27T15:18:46;8.70;99.90
25983;DHT22;13773;48.868;10.730;2022-09-27T15:21:26;8.50;99.90
25983;DHT22;13773;48.868;10.730;2022-09-27T15:23:52;8.40;99.90
25983;DHT22;13773;48.868;10.730;2022-09-27T15:29:02;8.30;99.90
25983;DHT22;13773;48.868;10.730;2022-09-27T15:31:29;8.20;99.90
25983;DHT22;13773;48.868;10.730;2022-09-27T15:33:56;8.10;99.90
25983;DHT22;13773;48.868;10.730;2022-09-27T15:36:56;8.10;99.90
25983;DHT22;13773;48.868;10.730;2022-09-27T15:39:38;8.00;99.90
25983;DHT22;13773;48.868;10.730;2022-09-27T15:42:11;7.90;99.90
25983;DHT22;13773;48.868;10.730;2022-09-27T15:52:43;7.80;99.90
25983;DHT22;13773;48.868;10.730;2022-09-27T15:55:13;7.70;99.90
25983;DHT22;13773;48.868;10.730;2022-09-27T15:57:40;7.70;99.90
25983;DHT22;13773;48.868;10.730;2022-09-27T16:00:11;7.70;99.90
25983;DHT22;13773;48.868;10.730;2022-09-27T16:02:37;7.70;99.90
25983;DHT22;13773;48.868;10.730;2022-09-27T16:05:03;7.70;99.90
25983;DHT22;13773;48.868;10.730;2022-09-27T16:07:29;7.60;99.90
25983;DHT22;13773;48.868;10.730;2022-09-27T16:09:55;7.60;99.90
25983;DHT22;13773;48.868;10.730;2022-09-27T16:12:21;7.60;99.90
25983;DHT22;13773;48.868;10.730;2022-09-27T16:14:47;7.60;99.90
25983;DHT22;13773;48.868;10.730;2022-09-27T16:17:13;7.60;99.90
25983;DHT22;13773;48.868;10.730;2022-09-27T16:19:39;7.60;99.90
25983;DHT22;13773;48.868;10.730;2022-09-27T16:22:05;7.60;99.90
25983;DHT22;13773;48.868;10.730;2022-09-27T16:24:31;7.60;99.90
25983;DHT22;13773;48.868;10.730;2022-09-27T16:26:57;7.60;99.90
25983;DHT22;13773;48.868;10.730;2022-09-27T16:29:23;7.50;99.90
25983;DHT22;13773;48.868;10.730;2022-09-27T16:31:49;7.50;99.90
25983;DHT22;13773;48.868;10.730;2022-09-27T16:34:15;7.50;99.90
25983;DHT22;13773;48.868;10.730;2022-09-27T16:36:41;7.50;99.90
25983;DHT22;13773;48.868;10.730;2022-09-27T16:39:10;7.40;99.90
25983;DHT22;13773;48.868;10.730;2022-09-27T16:41:39;7.40;99.90
25983;DHT22;13773;48.868;10.730;2022-09-27T16:44:12;7.40;99.90
25983;DHT22;13773;48.868;10.730;2022-09-27T16:46:43;7.50;99.90
25983;DHT22;13773;48.868;10.730;2022-09-27T16:49:12;7.50;99.90
25983;DHT22;13773;48.868;10.730;2022-09-27T16:51:57;7.50;99.90
25983;DHT22;13773;48.868;10.730;2022-09-27T16:54:27;7.60;99.90
25983;DHT22;13773;48.868;10.730;2022-09-27T16:56:55;7.60;99.90
25983;DHT22;13773;48.868;10.730;2022-09-27T16:59:20;7.60;99.90
25983;DHT22;13773;48.868;10.730;2022-09-27T17:01:47;7.50;99.90
25983;DHT22;13773;48.868;10.730;2022-09-27T17:04:12;7.40;99.90
25983;DHT22;13773;48.868;10.730;2022-09-27T17:06:41;7.30;99.90
25983;DHT22;13773;48.868;10.730;2022-09-27T17:09:08;7.20;99.90
25983;DHT22;13773;48.868;10.730;2022-09-27T17:11:34;7.10;99.90
25983;DHT22;13773;48.868;10.730;2022-09-27T17:13:59;7.00;99.90
25983;DHT22;13773;48.868;10.730;2022-09-27T17:16:26;7.00;99.90
25983;DHT22;13773;48.868;10.730;2022-09-27T17:18:53;7.00;99.90
25983;DHT22;13773;48.868;10.730;2022-09-27T17:21:18;6.90;99.90
25983;DHT22;13773;48.868;10.730;2022-09-27T17:23:45;6.90;99.90
25983;DHT22;13773;48.868;10.730;2022-09-27T17:26:18;6.90;99.90
25983;DHT22;13773;48.868;10.730;2022-09-27T17:28:44;7.00;99.90
25983;DHT22;13773;48.868;10.730;2022-09-27T17:31:11;7.00;99.90
25983;DHT22;13773;48.868;10.730;2022-09-27T17:33:41;7.00;99.90
25983;DHT22;13773;48.868;10.730;2022-09-27T17:36:11;7.00;99.90
25983;DHT22;13773;48.868;10.730;2022-09-27T17:38:38;7.00;99.90
25983;DHT22;13773;48.868;10.730;2022-09-27T17:41:06;7.00;99.90
25983;DHT22;13773;48.868;10.730;2022-09-27T17:43:34;6.90;99.90
25983;DHT22;13773;48.868;10.730;2022-09-27T17:46:07;6.90;99.90
25983;DHT22;13773;48.868;10.730;2022-09-27T17:48:34;6.90;99.90
25983;DHT22;13773;48.868;10.730;2022-09-27T17:51:19;6.90;99.90
25983;DHT22;13773;48.868;10.730;2022-09-27T17:53:46;6.90;99.90
25983;DHT22;13773;48.868;10.730;2022-09-27T17:56:13;7.00;99.90
25983;DHT22;13773;48.868;10.730;2022-09-27T17:58:49;6.90;99.90
25983;DHT22;13773;48.868;10.730;2022-09-27T18:01:17;6.90;99.90
25983;DHT22;13773;48.868;10.730;2022-09-27T18:03:43;6.90;99.90
25983;DHT22;13773;48.868;10.730;2022-09-27T18:06:11;6.80;99.90
25983;DHT22;13773;48.868;10.730;2022-09-27T18:08:37;6.80;99.90
25983;DHT22;13773;48.868;10.730;2022-09-27T18:11:08;6.70;99.90
25983;DHT22;13773;48.868;10.730;2022-09-27T18:13:36;6.60;99.90
25983;DHT22;13773;48.868;10.730;2022-09-27T18:16:10;6.50;99.90
25983;DHT22;13773;48.868;10.730;2022-09-27T18:18:37;6.40;99.90
25983;DHT22;13773;48.868;10.730;2022-09-27T18:21:07;6.40;99.90
25983;DHT22;13773;48.868;10.730;2022-09-27T18:23:36;6.30;99.90
25983;DHT22;13773;48.868;10.730;2022-09-27T18:26:02;6.30;99.90
25983;DHT22;13773;48.868;10.730;2022-09-27T18:28:33;6.30;99.90
25983;DHT22;13773;48.868;10.730;2022-09-27T18:31:02;6.20;99.90
25983;DHT22;13773;48.868;10.730;2022-09-27T18:33:28;6.30;99.90
25983;DHT22;13773;48.868;10.730;2022-09-27T18:35:54;6.30;99.90
25983;DHT22;13773;48.868;10.730;2022-09-27T18:38:19;6.30;99.90
25983;DHT22;13773;48.868;10.730;2022-09-27T18:40:45;6.30;99.90
25983;DHT22;13773;48.868;10.730;2022-09-27T18:43:11;6.20;99.90
25983;DHT22;13773;48.868;10.730;2022-09-27T18:45:37;6.20;99.90
25983;DHT22;13773;48.868;10.730;2022-09-27T18:48:04;6.10;99.90